Abeokuta, Nigeria
Current Conditions -  °F | °C
As of 7:00 PM on Tuesday 27 Jan 2015 (Local Time) from DNMM Reporting Station
Few Clouds Few Clouds  
Wind Chill: 84°   Ceiling: Unl
Heat Index: 94°   Visibility: 5mi
Dew Point: 77°   Wind: 12mph
Humidity: 79%   Direction: 270°W
Pressure: 29.83"   Gusts: NA
Location:  7.16°N, 3.35°E
Report Text: DNMM 271800Z 27010KT 8000 FEW012 29/25 Q1010 NOSIG
Loading
Personal Weather Stations






























Interactive Weather Map New forecast layout! Learn more

10-Day Weather Forecast

Advertisements
Track Severe Weather on mobile